Terminal Aerodrome Forecast
Issued by NWS

Home | Current Version | Previous Version | Text Only | Print | Product List | Glossary On
Versions: 1 2 3 4 5 6 7 8 9 10 11 12 13 14 15 16 17 18 19 20 21 22 23 24
000
FTUS45 KREV 252320
TAFRNO
TAF
KRNO 252320Z 2600/2624 01009KT P6SM VCSH BKN060 BKN120
     FM260100 33009KT P6SM SCT120
     FM260500 VRB03KT P6SM BKN120
     FM262000 31008G14KT P6SM VCSH SCT080 BKN120=

USA.gov is the U.S. government's official web portal to all federal, state and local government web resources and services.